createdAt,value
2019-01-20T00:00:23.775Z,0.00
2019-01-20T00:01:24.404Z,0.00
2019-01-20T00:02:24.441Z,0.00
2019-01-20T00:03:24.698Z,0.00
2019-01-20T00:04:25.097Z,0.00
2019-01-20T00:05:25.691Z,0.00
2019-01-20T00:06:25.816Z,0.00
2019-01-20T00:07:26.113Z,0.00
2019-01-20T00:08:26.389Z,0.00
2019-01-20T00:09:26.507Z,0.00
2019-01-20T00:10:26.615Z,0.00
2019-01-20T00:11:26.818Z,0.00
2019-01-20T00:12:27.134Z,0.00
2019-01-20T00:13:27.237Z,0.00
2019-01-20T00:14:27.388Z,0.00
2019-01-20T00:15:27.484Z,0.00
2019-01-20T00:16:27.642Z,0.00
2019-01-20T00:17:27.928Z,0.00
2019-01-20T00:18:28.016Z,0.00
2019-01-20T00:19:28.109Z,0.00
2019-01-20T00:20:28.357Z,0.00
2019-01-20T00:21:28.489Z,0.00
2019-01-20T00:22:28.737Z,0.00
2019-01-20T00:23:28.879Z,0.00
2019-01-20T00:24:28.975Z,0.00
2019-01-20T00:25:29.072Z,0.00
2019-01-20T00:26:29.358Z,0.00
2019-01-20T00:27:29.584Z,0.00
2019-01-20T00:28:29.677Z,0.00
2019-01-20T00:29:29.845Z,0.00
2019-01-20T00:30:33.714Z,0.00
2019-01-20T00:31:30.017Z,0.00
2019-01-20T00:32:30.212Z,0.00
2019-01-20T00:33:30.284Z,0.00
2019-01-20T00:34:30.339Z,0.00
2019-01-20T00:35:30.456Z,0.00
2019-01-20T00:36:30.761Z,0.00
2019-01-20T00:37:30.832Z,0.00
2019-01-20T00:38:38.419Z,0.00
2019-01-20T00:39:38.730Z,0.00
2019-01-20T00:40:38.759Z,0.00
2019-01-20T00:41:39.056Z,0.00
2019-01-20T00:42:39.368Z,0.00
2019-01-20T00:43:39.721Z,0.00
2019-01-20T00:44:40.378Z,0.00
2019-01-20T00:45:40.597Z,0.00
2019-01-20T00:46:41.619Z,0.00
2019-01-20T00:47:42.238Z,0.00
2019-01-20T00:48:42.348Z,0.00
2019-01-20T00:49:42.765Z,0.00
2019-01-20T00:50:43.292Z,0.00
2019-01-20T00:51:43.287Z,0.00
2019-01-20T00:52:42.992Z,0.00
2019-01-20T00:53:43.263Z,0.00
2019-01-20T00:54:43.617Z,0.00
2019-01-20T00:55:43.836Z,0.00
2019-01-20T00:56:44.039Z,0.00
2019-01-20T00:57:44.245Z,0.00
2019-01-20T00:58:44.156Z,0.00
2019-01-20T00:59:44.569Z,0.00
2019-01-20T01:00:44.780Z,0.00
2019-01-20T01:01:45.199Z,0.00
2019-01-20T01:02:45.641Z,0.00
2019-01-20T01:03:45.814Z,0.00
2019-01-20T01:04:45.977Z,0.00
2019-01-20T01:05:46.566Z,0.00
2019-01-20T01:06:46.317Z,0.00
2019-01-20T01:07:46.378Z,0.00
2019-01-20T01:08:46.448Z,0.00
2019-01-20T01:09:46.551Z,0.00
2019-01-20T01:10:46.909Z,0.00
2019-01-20T01:11:46.706Z,0.00
2019-01-20T01:12:47.413Z,0.00
2019-01-20T01:13:47.478Z,0.00
2019-01-20T01:14:47.781Z,0.00
2019-01-20T01:15:48.215Z,0.00
2019-01-20T01:16:49.016Z,0.00
2019-01-20T01:17:48.825Z,0.00
2019-01-20T01:18:49.310Z,0.00
2019-01-20T01:19:49.655Z,0.00
2019-01-20T01:20:49.991Z,0.00
2019-01-20T01:21:50.301Z,0.00
2019-01-20T01:22:50.955Z,0.00
2019-01-20T01:23:50.815Z,0.00
2019-01-20T01:24:51.122Z,0.00
2019-01-20T01:25:51.802Z,0.00
2019-01-20T01:26:51.645Z,0.00
2019-01-20T01:27:52.012Z,0.00
2019-01-20T01:28:52.657Z,0.00
2019-01-20T01:29:52.699Z,0.00
2019-01-20T01:30:52.654Z,0.00
2019-01-20T01:31:53.017Z,0.00
2019-01-20T01:32:53.496Z,0.00
2019-01-20T01:33:53.773Z,0.00
2019-01-20T01:34:54.157Z,0.00
2019-01-20T01:35:54.469Z,0.00
2019-01-20T01:36:54.797Z,0.00
2019-01-20T01:37:55.575Z,0.00
2019-01-20T01:38:56.300Z,0.00
2019-01-20T01:39:56.615Z,0.00
2019-01-20T01:40:57.132Z,0.00
2019-01-20T01:41:57.076Z,0.00
2019-01-20T01:42:57.451Z,0.00
2019-01-20T01:43:57.963Z,0.00
2019-01-20T01:44:57.837Z,0.00
2019-01-20T01:45:58.401Z,0.00
2019-01-20T01:46:58.156Z,0.00
2019-01-20T01:47:58.713Z,0.00
2019-01-20T01:48:58.309Z,0.00
2019-01-20T01:49:58.255Z,0.00
2019-01-20T01:50:59.135Z,0.00
2019-01-20T01:51:59.165Z,0.00
2019-01-20T01:52:59.157Z,0.00
2019-01-20T01:53:59.359Z,0.00
2019-01-20T01:54:59.748Z,0.00
2019-01-20T01:56:00.072Z,0.00
2019-01-20T01:57:00.651Z,0.00
2019-01-20T01:58:00.527Z,0.00
2019-01-20T01:59:00.934Z,0.00
2019-01-20T02:00:01.453Z,0.00
2019-01-20T02:01:02.057Z,0.00
2019-01-20T02:02:01.883Z,0.00
2019-01-20T02:03:02.265Z,0.00
2019-01-20T02:04:02.199Z,0.00
2019-01-20T02:05:02.701Z,0.00
2019-01-20T02:06:02.715Z,0.00
2019-01-20T02:07:03.020Z,0.00
2019-01-20T02:08:03.308Z,0.00
2019-01-20T02:09:03.732Z,0.00
2019-01-20T02:10:03.758Z,0.00
2019-01-20T02:11:04.285Z,0.00
2019-01-20T02:12:04.151Z,0.00
2019-01-20T02:13:04.776Z,0.00
2019-01-20T02:14:04.648Z,0.00
2019-01-20T02:15:04.962Z,0.00
2019-01-20T02:16:05.068Z,0.00
2019-01-20T02:17:05.556Z,0.00
2019-01-20T02:18:06.287Z,0.00
2019-01-20T02:19:06.116Z,0.00
2019-01-20T02:20:06.750Z,0.00
2019-01-20T02:21:06.778Z,0.00
2019-01-20T02:22:06.669Z,0.00
2019-01-20T02:23:07.047Z,0.00
2019-01-20T02:24:07.422Z,0.00
2019-01-20T02:25:07.676Z,0.00
2019-01-20T02:26:08.015Z,0.00
2019-01-20T02:27:08.670Z,0.00
2019-01-20T02:28:08.564Z,0.00
2019-01-20T02:29:09.022Z,0.00
2019-01-20T02:30:09.293Z,0.00
2019-01-20T02:31:09.456Z,0.00
2019-01-20T02:32:09.703Z,0.00
2019-01-20T02:33:10.271Z,0.00
2019-01-20T02:34:10.327Z,0.00
2019-01-20T02:35:10.592Z,0.00
2019-01-20T02:36:11.212Z,0.00
2019-01-20T02:37:11.628Z,0.00
2019-01-20T02:38:11.945Z,0.00
2019-01-20T02:39:12.365Z,0.00
2019-01-20T02:40:12.879Z,0.00
2019-01-20T02:41:12.763Z,0.00
2019-01-20T02:42:13.063Z,0.00
2019-01-20T02:43:13.203Z,0.00
2019-01-20T02:44:13.522Z,0.00
2019-01-20T02:45:13.829Z,0.00
2019-01-20T02:46:13.937Z,0.00
2019-01-20T02:47:14.356Z,0.00
2019-01-20T02:48:14.261Z,0.00
2019-01-20T02:49:14.452Z,0.00
2019-01-20T02:50:15.013Z,0.00
2019-01-20T02:51:14.724Z,0.00
2019-01-20T02:52:15.209Z,0.00
2019-01-20T02:53:15.523Z,0.00
2019-01-20T02:54:16.019Z,0.00
2019-01-20T02:55:16.161Z,0.00
2019-01-20T02:56:16.226Z,0.00
2019-01-20T02:57:16.201Z,0.00
2019-01-20T02:58:16.549Z,0.00
2019-01-20T02:59:16.812Z,0.00
2019-01-20T03:00:17.722Z,0.00
2019-01-20T03:01:17.699Z,0.00
2019-01-20T03:02:17.924Z,0.00
2019-01-20T03:03:17.762Z,0.00
2019-01-20T03:04:18.086Z,0.00
2019-01-20T03:05:18.867Z,0.00
2019-01-20T03:06:18.810Z,0.00
2019-01-20T03:07:19.116Z,0.00
2019-01-20T03:08:19.595Z,0.00
2019-01-20T03:09:19.854Z,0.00
2019-01-20T03:10:20.544Z,0.00
2019-01-20T03:11:20.393Z,0.00
2019-01-20T03:12:20.792Z,0.00
2019-01-20T03:13:21.354Z,0.00
2019-01-20T03:14:21.235Z,0.00
2019-01-20T03:15:21.544Z,0.00
2019-01-20T03:16:22.273Z,0.00
2019-01-20T03:17:22.172Z,0.00
2019-01-20T03:18:22.496Z,0.00
2019-01-20T03:19:22.844Z,0.00
2019-01-20T03:20:23.244Z,0.00
2019-01-20T03:21:23.528Z,0.00
2019-01-20T03:23:23.942Z,0.00
2019-01-20T03:24:24.290Z,0.00
2019-01-20T03:25:24.575Z,0.00
2019-01-20T03:26:24.880Z,0.00
2019-01-20T03:27:25.881Z,0.00
2019-01-20T03:28:25.679Z,0.00
2019-01-20T03:29:26.408Z,0.00
2019-01-20T03:30:26.530Z,0.00
2019-01-20T03:31:27.023Z,0.00
2019-01-20T03:32:27.660Z,0.00
2019-01-20T03:33:27.659Z,0.00
2019-01-20T03:34:27.560Z,0.00
2019-01-20T03:35:28.097Z,0.00
2019-01-20T03:36:27.990Z,0.00
2019-01-20T03:37:28.499Z,0.00
2019-01-20T03:38:28.097Z,0.00
2019-01-20T03:39:28.317Z,0.00
2019-01-20T03:40:28.632Z,0.00
2019-01-20T03:41:28.935Z,0.00
2019-01-20T03:42:29.148Z,0.00
2019-01-20T03:43:29.137Z,0.00
2019-01-20T03:44:29.470Z,0.00
2019-01-20T03:45:29.997Z,0.00
2019-01-20T03:46:29.993Z,0.00
2019-01-20T03:47:30.308Z,0.00
2019-01-20T03:48:30.512Z,0.00
2019-01-20T03:49:30.705Z,0.00
2019-01-20T03:50:31.004Z,0.00
2019-01-20T03:51:31.452Z,0.00
2019-01-20T03:52:31.535Z,0.00
2019-01-20T03:53:31.678Z,0.00
2019-01-20T03:54:31.708Z,0.00
2019-01-20T03:55:31.791Z,0.00
2019-01-20T03:56:31.780Z,0.00
2019-01-20T03:57:32.123Z,0.00
2019-01-20T03:58:32.473Z,0.00
2019-01-20T03:59:32.771Z,0.00
2019-01-20T04:00:33.116Z,0.00
2019-01-20T04:01:33.676Z,0.00
2019-01-20T04:02:33.665Z,0.00
2019-01-20T04:03:34.035Z,0.00
2019-01-20T04:04:34.351Z,0.00
2019-01-20T04:05:34.664Z,0.00
2019-01-20T04:06:34.985Z,0.00
2019-01-20T04:07:35.294Z,0.00
2019-01-20T04:08:35.644Z,0.00
2019-01-20T04:09:35.923Z,0.00
2019-01-20T04:10:36.233Z,0.00
2019-01-20T04:11:36.826Z,0.00
2019-01-20T04:12:36.704Z,0.00
2019-01-20T04:13:37.074Z,0.00
2019-01-20T04:14:37.449Z,0.00
2019-01-20T04:15:37.983Z,0.00
2019-01-20T04:16:37.973Z,0.00
2019-01-20T04:17:38.234Z,0.00
2019-01-20T04:18:38.507Z,0.00
2019-01-20T04:19:38.869Z,0.00
2019-01-20T04:20:39.365Z,0.00
2019-01-20T04:21:39.744Z,0.00
2019-01-20T04:22:40.370Z,0.00
2019-01-20T04:23:40.684Z,0.00
2019-01-20T04:24:41.319Z,0.00
2019-01-20T04:25:41.313Z,0.00
2019-01-20T04:26:41.956Z,0.00
2019-01-20T04:27:42.245Z,0.00
2019-01-20T04:28:42.765Z,0.00
2019-01-20T04:29:42.669Z,0.00
2019-01-20T04:30:43.085Z,0.00
2019-01-20T04:31:43.407Z,0.00
2019-01-20T04:32:43.503Z,0.00
2019-01-20T04:33:43.924Z,0.00
2019-01-20T04:34:44.135Z,0.00
2019-01-20T04:35:44.239Z,0.00
2019-01-20T04:36:44.360Z,0.00
2019-01-20T04:37:44.454Z,0.00
2019-01-20T04:38:44.645Z,0.00
2019-01-20T04:39:44.514Z,0.00
2019-01-20T04:40:44.664Z,0.00
2019-01-20T04:41:44.763Z,0.00
2019-01-20T04:42:44.998Z,0.00
2019-01-20T04:43:45.216Z,0.00
2019-01-20T04:44:45.624Z,0.00
2019-01-20T04:45:45.826Z,0.00
2019-01-20T04:46:45.979Z,0.00
2019-01-20T04:47:45.927Z,0.00
2019-01-20T04:48:47.093Z,0.00
2019-01-20T04:49:46.438Z,0.00
2019-01-20T04:50:46.951Z,0.00
2019-01-20T04:51:46.839Z,0.00
2019-01-20T04:53:47.640Z,0.00
2019-01-20T04:54:47.923Z,0.00
2019-01-20T04:55:47.808Z,0.00
2019-01-20T04:56:48.336Z,0.00
2019-01-20T04:57:48.252Z,0.00
2019-01-20T04:58:48.396Z,0.00
2019-01-20T04:59:48.734Z,0.00
2019-01-20T05:00:49.133Z,0.00
2019-01-20T05:01:49.587Z,0.00
2019-01-20T05:02:49.908Z,0.00
2019-01-20T05:03:50.561Z,0.00
2019-01-20T05:04:50.673Z,0.00
2019-01-20T05:05:50.892Z,0.00
2019-01-20T05:06:50.661Z,0.00
2019-01-20T05:07:51.007Z,0.00
2019-01-20T05:08:51.433Z,0.00
2019-01-20T05:09:51.775Z,0.00
2019-01-20T05:10:52.231Z,0.00
2019-01-20T05:11:53.070Z,0.00
2019-01-20T05:12:52.920Z,0.00
2019-01-20T05:13:53.240Z,0.00
2019-01-20T05:14:53.919Z,0.00
2019-01-20T05:15:53.753Z,0.00
2019-01-20T05:16:54.276Z,0.00
2019-01-20T05:17:54.032Z,0.00
2019-01-20T05:18:54.389Z,0.00
2019-01-20T05:19:54.703Z,0.00
2019-01-20T05:20:55.697Z,0.00
2019-01-20T05:21:55.498Z,0.00
2019-01-20T05:22:56.236Z,0.00
2019-01-20T05:23:56.433Z,0.00
2019-01-20T05:24:56.745Z,0.00
2019-01-20T05:25:57.060Z,0.00
2019-01-20T05:26:57.478Z,0.00
2019-01-20T05:27:57.893Z,0.00
2019-01-20T05:28:58.053Z,0.00
2019-01-20T05:29:58.212Z,0.00
2019-01-20T05:30:58.320Z,0.00
2019-01-20T05:31:58.431Z,0.00
2019-01-20T05:32:58.642Z,0.00
2019-01-20T05:33:58.863Z,0.00
2019-01-20T05:34:59.168Z,0.00
2019-01-20T05:35:59.286Z,0.00
2019-01-20T05:36:59.281Z,0.00
2019-01-20T05:37:59.776Z,0.00
2019-01-20T05:39:00.013Z,0.00
2019-01-20T05:40:00.326Z,0.00
2019-01-20T05:41:00.848Z,0.00
2019-01-20T05:42:00.851Z,0.00
2019-01-20T05:43:01.113Z,0.00
2019-01-20T05:44:01.332Z,0.00
2019-01-20T05:45:01.630Z,0.00
2019-01-20T05:46:01.492Z,0.00
2019-01-20T05:47:02.728Z,0.00
2019-01-20T05:48:01.987Z,0.00
2019-01-20T05:49:03.048Z,0.00
2019-01-20T05:50:02.754Z,0.00
2019-01-20T05:51:03.124Z,0.00
2019-01-20T05:52:03.868Z,0.00
2019-01-20T05:53:03.213Z,0.00
2019-01-20T05:54:03.869Z,0.00
2019-01-20T05:55:04.025Z,0.00
2019-01-20T05:56:04.349Z,0.00
2019-01-20T05:57:04.558Z,0.00
2019-01-20T05:58:04.567Z,0.00
2019-01-20T05:59:04.392Z,0.00
2019-01-20T06:00:04.872Z,0.00
2019-01-20T06:01:04.815Z,0.00
2019-01-20T06:02:05.127Z,0.00
2019-01-20T06:03:05.697Z,0.00
2019-01-20T06:04:05.812Z,0.00
2019-01-20T06:05:05.659Z,0.00
2019-01-20T06:06:06.526Z,0.00
2019-01-20T06:07:06.398Z,0.00
2019-01-20T06:08:06.725Z,0.00
2019-01-20T06:09:07.132Z,0.00
2019-01-20T06:10:07.769Z,0.00
2019-01-20T06:11:08.102Z,0.00
2019-01-20T06:12:07.958Z,0.00
2019-01-20T06:13:08.279Z,0.00
2019-01-20T06:14:08.842Z,0.00
2019-01-20T06:15:08.709Z,0.00
2019-01-20T06:16:09.286Z,0.00
2019-01-20T06:17:09.143Z,0.00
2019-01-20T06:18:09.138Z,0.00
2019-01-20T06:19:09.663Z,0.00
2019-01-20T06:20:09.456Z,0.00
2019-01-20T06:21:10.119Z,0.00
2019-01-20T06:22:09.984Z,0.00
2019-01-20T06:23:11.152Z,0.00
2019-01-20T06:24:11.262Z,0.00
2019-01-20T06:25:11.585Z,0.00
2019-01-20T06:26:11.993Z,0.00
2019-01-20T06:27:12.202Z,0.00
2019-01-20T06:28:12.514Z,0.00
2019-01-20T06:29:12.794Z,0.00
2019-01-20T06:30:13.374Z,0.00
2019-01-20T06:31:13.153Z,0.00
2019-01-20T06:32:13.260Z,0.00
2019-01-20T06:33:13.349Z,0.00
2019-01-20T06:34:13.475Z,1.00
2019-01-20T06:35:13.692Z,1.00
2019-01-20T06:36:13.837Z,1.00
2019-01-20T06:37:13.906Z,2.00
2019-01-20T06:38:16.546Z,1.00
2019-01-20T06:39:14.029Z,2.00
2019-01-20T06:40:14.652Z,3.00
2019-01-20T06:41:14.852Z,2.00
2019-01-20T06:42:14.658Z,4.00
2019-01-20T06:43:14.904Z,4.00
2019-01-20T06:44:15.495Z,5.00
2019-01-20T06:45:15.786Z,6.00
2019-01-20T06:46:15.611Z,7.00
2019-01-20T06:47:15.954Z,8.00
2019-01-20T06:48:16.068Z,9.00
2019-01-20T06:49:16.448Z,11.00
2019-01-20T06:50:16.854Z,13.00
2019-01-20T06:51:16.349Z,14.00
2019-01-20T06:52:16.613Z,16.00
2019-01-20T06:53:16.922Z,19.00
2019-01-20T06:54:17.239Z,22.00
2019-01-20T06:55:18.122Z,25.00
2019-01-20T06:56:17.979Z,29.00
2019-01-20T06:57:18.641Z,34.00
2019-01-20T06:58:18.748Z,39.00
2019-01-20T06:59:18.589Z,44.00
2019-01-20T07:00:19.035Z,50.00
2019-01-20T07:01:19.045Z,56.00
2019-01-20T07:02:19.805Z,66.00
2019-01-20T07:03:19.586Z,79.00
2019-01-20T07:04:19.965Z,92.00
2019-01-20T07:05:20.640Z,103.00
2019-01-20T07:06:20.509Z,115.00
2019-01-20T07:07:21.146Z,127.00
2019-01-20T07:08:21.045Z,142.00
2019-01-20T07:09:21.671Z,159.00
2019-01-20T07:10:21.726Z,178.00
2019-01-20T07:11:21.943Z,199.00
2019-01-20T07:12:21.816Z,221.00
2019-01-20T07:13:22.433Z,246.00
2019-01-20T07:14:22.447Z,273.00
2019-01-20T07:15:22.813Z,299.00
2019-01-20T07:16:23.144Z,323.00
2019-01-20T07:17:23.897Z,347.00
2019-01-20T07:18:23.834Z,371.00
2019-01-20T07:19:24.283Z,397.00
2019-01-20T07:20:24.948Z,426.00
2019-01-20T07:21:25.057Z,459.00
2019-01-20T07:22:25.363Z,495.00
2019-01-20T07:23:25.468Z,530.00
2019-01-20T07:24:26.089Z,565.00
2019-01-20T07:25:26.301Z,600.00
2019-01-20T07:26:26.521Z,643.00
2019-01-20T07:27:26.950Z,675.00
2019-01-20T07:28:27.559Z,714.00
2019-01-20T07:29:27.557Z,752.00
2019-01-20T07:30:28.074Z,788.00
2019-01-20T07:31:27.988Z,828.00
2019-01-20T07:32:28.294Z,871.00
2019-01-20T07:33:28.505Z,916.00
2019-01-20T07:34:28.941Z,960.00
2019-01-20T07:35:28.826Z,1005.00
2019-01-20T07:36:28.839Z,1049.00
2019-01-20T07:37:28.942Z,1093.00
2019-01-20T07:38:29.080Z,1137.00
2019-01-20T07:39:29.161Z,1181.00
2019-01-20T07:40:29.562Z,1220.00
2019-01-20T07:41:30.107Z,1251.00
2019-01-20T07:42:32.669Z,1277.00
2019-01-20T07:43:30.454Z,1307.00
2019-01-20T07:44:30.798Z,1338.00
2019-01-20T07:45:31.190Z,1378.00
2019-01-20T07:46:31.472Z,1419.00
2019-01-20T07:47:31.664Z,1448.00
2019-01-20T07:48:31.636Z,1498.00
2019-01-20T07:49:32.064Z,1557.00
2019-01-20T07:50:32.664Z,1606.00
2019-01-20T07:51:32.470Z,1679.00
2019-01-20T07:52:32.939Z,1783.00
2019-01-20T07:53:33.552Z,1878.00
2019-01-20T07:54:33.386Z,1932.00
2019-01-20T07:55:33.715Z,1965.00
2019-01-20T07:56:34.138Z,1981.00
2019-01-20T07:57:34.441Z,1984.00
2019-01-20T07:58:34.751Z,1980.00
2019-01-20T07:59:35.080Z,2006.00
2019-01-20T08:00:38.485Z,2065.00
2019-01-20T08:02:35.907Z,2172.00
2019-01-20T08:03:36.319Z,2212.00
2019-01-20T08:04:36.893Z,2228.00
2019-01-20T08:05:37.320Z,2242.00
2019-01-20T08:06:37.538Z,2285.00
2019-01-20T08:07:37.375Z,2286.00
2019-01-20T08:08:37.935Z,2311.00
2019-01-20T08:09:37.805Z,2368.00
2019-01-20T08:10:38.381Z,2464.00
2019-01-20T08:11:38.224Z,2568.00
2019-01-20T08:12:38.627Z,2649.00
2019-01-20T08:13:39.151Z,2697.00
2019-01-20T08:14:39.581Z,2758.00
2019-01-20T08:15:40.358Z,2871.00
2019-01-20T08:16:41.071Z,3031.00
2019-01-20T08:17:41.285Z,3192.00
2019-01-20T08:18:41.819Z,3308.00
2019-01-20T08:19:42.221Z,3384.00
2019-01-20T08:20:42.635Z,3447.00
2019-01-20T08:21:43.050Z,3498.00
2019-01-20T08:22:43.260Z,3521.00
2019-01-20T08:23:43.694Z,3523.00
2019-01-20T08:24:43.785Z,3550.00
2019-01-20T08:25:43.895Z,3616.00
2019-01-20T08:26:43.904Z,3682.00
2019-01-20T08:27:44.418Z,3699.00
2019-01-20T08:28:44.433Z,3673.00
2019-01-20T08:29:44.427Z,3649.00
2019-01-20T08:30:44.705Z,3686.00
2019-01-20T08:31:44.954Z,3751.00
2019-01-20T08:32:45.169Z,3820.00
2019-01-20T08:33:45.387Z,3922.00
2019-01-20T08:34:45.783Z,4024.00
2019-01-20T08:35:46.112Z,4094.00
2019-01-20T08:36:46.354Z,4140.00
2019-01-20T08:37:46.467Z,4180.00
2019-01-20T08:38:46.721Z,4260.00
2019-01-20T08:39:46.766Z,4332.00
2019-01-20T08:40:46.546Z,4300.00
2019-01-20T08:41:46.872Z,4298.00
2019-01-20T08:42:47.221Z,4283.00
2019-01-20T08:43:47.595Z,4276.00
2019-01-20T08:44:47.856Z,4260.00
2019-01-20T08:45:48.173Z,4263.00
2019-01-20T08:46:48.839Z,4308.00
2019-01-20T08:47:48.939Z,4382.00
2019-01-20T08:48:49.403Z,4492.00
2019-01-20T08:49:49.742Z,4614.00
2019-01-20T08:50:50.069Z,4729.00
2019-01-20T08:51:50.615Z,4772.00
2019-01-20T08:52:50.462Z,4854.00
2019-01-20T08:53:51.006Z,4962.00
2019-01-20T08:54:50.782Z,5098.00
2019-01-20T08:55:51.106Z,5274.00
2019-01-20T08:56:51.781Z,7183.00
2019-01-20T08:57:51.982Z,9973.00
2019-01-20T08:58:51.816Z,65536.00
2019-01-20T08:59:52.048Z,65536.00
2019-01-20T09:00:52.306Z,65536.00
2019-01-20T09:01:52.701Z,65536.00
2019-01-20T09:02:52.996Z,65536.00
2019-01-20T09:03:53.317Z,65536.00
2019-01-20T09:04:53.624Z,65536.00
2019-01-20T09:05:54.046Z,65536.00
2019-01-20T09:06:54.433Z,65536.00
2019-01-20T09:07:55.229Z,9832.00
2019-01-20T09:08:55.340Z,9521.00
2019-01-20T09:09:55.754Z,9189.00
2019-01-20T09:10:56.582Z,8328.00
2019-01-20T09:11:57.103Z,7639.00
2019-01-20T09:12:57.007Z,7213.00
2019-01-20T09:13:57.423Z,6732.00
2019-01-20T09:14:57.941Z,6362.00
2019-01-20T09:15:57.824Z,6124.00
2019-01-20T09:16:58.001Z,6181.00
2019-01-20T09:17:58.401Z,6637.00
2019-01-20T09:18:58.375Z,7182.00
2019-01-20T09:19:58.794Z,7488.00
2019-01-20T09:20:58.403Z,7814.00
2019-01-20T09:21:59.110Z,7834.00
2019-01-20T09:22:59.274Z,8347.00
2019-01-20T09:23:59.419Z,9257.00
2019-01-20T09:24:59.388Z,9524.00
2019-01-20T09:25:59.953Z,9649.00
2019-01-20T09:26:59.961Z,9968.00
2019-01-20T09:27:59.763Z,8861.00
2019-01-20T09:28:59.973Z,8555.00
2019-01-20T09:30:00.381Z,9120.00
2019-01-20T09:31:00.601Z,8823.00
2019-01-20T09:32:01.103Z,8950.00
2019-01-20T09:33:01.425Z,8759.00
2019-01-20T09:34:01.649Z,9026.00
2019-01-20T09:35:01.959Z,8936.00
2019-01-20T09:36:02.593Z,9292.00
2019-01-20T09:37:02.842Z,9470.00
2019-01-20T09:38:03.214Z,7511.00
2019-01-20T09:39:03.334Z,7024.00
2019-01-20T09:40:03.817Z,7199.00
2019-01-20T09:41:05.156Z,7330.00
2019-01-20T09:42:04.247Z,8604.00
2019-01-20T09:43:04.675Z,8285.00
2019-01-20T09:44:04.269Z,9005.00
2019-01-20T09:45:04.250Z,10689.00
2019-01-20T09:46:04.437Z,11654.00
2019-01-20T09:47:04.421Z,11521.00
2019-01-20T09:48:04.770Z,9899.00
2019-01-20T09:49:05.029Z,10225.00
2019-01-20T09:51:05.561Z,65536.00
2019-01-20T09:52:05.566Z,65536.00
2019-01-20T09:53:05.912Z,65536.00
2019-01-20T09:54:06.223Z,65536.00
2019-01-20T09:55:06.543Z,65536.00
2019-01-20T09:56:07.013Z,9837.00
2019-01-20T09:57:07.526Z,9173.00
2019-01-20T09:58:07.377Z,10441.00
2019-01-20T09:59:07.919Z,10099.00
2019-01-20T10:00:07.796Z,7814.00
2019-01-20T10:01:08.237Z,8198.00
2019-01-20T10:02:08.542Z,8579.00
2019-01-20T10:03:16.043Z,9461.00
2019-01-20T10:04:09.251Z,65536.00
2019-01-20T10:05:09.938Z,65536.00
2019-01-20T10:06:09.777Z,65536.00
2019-01-20T10:07:10.987Z,65536.00
2019-01-20T10:08:11.005Z,9798.00
2019-01-20T10:09:11.715Z,10484.00
2019-01-20T10:10:11.405Z,65536.00
2019-01-20T10:11:11.415Z,65536.00
2019-01-20T10:13:11.952Z,9574.00
2019-01-20T10:14:11.841Z,9148.00
2019-01-20T10:15:12.259Z,7794.00
2019-01-20T10:16:12.876Z,8653.00
2019-01-20T10:17:12.789Z,8026.00
2019-01-20T10:18:13.054Z,8825.00
2019-01-20T10:19:13.205Z,9744.00
2019-01-20T10:20:13.620Z,9652.00
2019-01-20T10:21:13.727Z,8365.00
2019-01-20T10:22:14.056Z,8237.00
2019-01-20T10:23:14.139Z,9497.00
2019-01-20T10:24:14.360Z,10690.00
2019-01-20T10:25:15.178Z,10567.00
2019-01-20T10:26:14.524Z,10866.00
2019-01-20T10:27:14.802Z,10787.00
2019-01-20T10:28:14.991Z,10271.00
2019-01-20T10:29:15.591Z,9689.00
2019-01-20T10:30:15.516Z,9703.00
2019-01-20T10:31:15.890Z,8935.00
2019-01-20T10:32:16.068Z,7756.00
2019-01-20T10:33:16.111Z,7580.00
2019-01-20T10:34:16.159Z,8296.00
2019-01-20T10:35:16.680Z,8770.00
2019-01-20T10:36:16.136Z,9446.00
2019-01-20T10:37:17.017Z,10124.00
2019-01-20T10:38:16.910Z,9170.00
2019-01-20T10:39:17.188Z,8369.00
2019-01-20T10:40:17.680Z,9349.00
2019-01-20T10:41:18.044Z,9757.00
2019-01-20T10:42:18.792Z,9848.00
2019-01-20T10:43:18.665Z,8911.00
2019-01-20T10:44:18.925Z,9319.00
2019-01-20T10:45:19.251Z,9868.00
2019-01-20T10:46:19.786Z,9880.00
2019-01-20T10:47:20.147Z,10096.00
2019-01-20T10:48:19.911Z,9159.00
2019-01-20T10:49:20.202Z,8447.00
2019-01-20T10:50:20.672Z,8531.00
2019-01-20T10:51:21.043Z,9278.00
2019-01-20T10:52:21.465Z,8200.00
2019-01-20T10:53:22.147Z,6960.00
2019-01-20T10:54:22.033Z,6944.00
2019-01-20T10:55:22.861Z,6967.00
2019-01-20T10:56:22.711Z,7834.00
2019-01-20T10:57:22.987Z,9082.00
2019-01-20T10:58:23.252Z,9371.00
2019-01-20T10:59:23.786Z,8712.00
2019-01-20T11:00:23.848Z,8527.00
2019-01-20T11:01:23.806Z,8979.00
2019-01-20T11:02:24.125Z,65536.00
2019-01-20T11:03:23.993Z,65536.00
2019-01-20T11:04:24.300Z,8358.00
2019-01-20T11:05:30.354Z,8172.00
2019-01-20T11:06:24.866Z,65536.00
2019-01-20T11:07:25.703Z,65536.00
2019-01-20T11:08:26.238Z,65536.00
2019-01-20T11:09:26.535Z,8416.00
2019-01-20T11:10:27.083Z,7669.00
2019-01-20T11:11:26.868Z,7269.00
2019-01-20T11:12:27.370Z,7125.00
2019-01-20T11:13:27.905Z,6356.00
2019-01-20T11:14:27.803Z,5892.00
2019-01-20T11:15:28.215Z,5803.00
2019-01-20T11:16:28.634Z,6158.00
2019-01-20T11:17:28.748Z,6435.00
2019-01-20T11:18:29.065Z,6371.00
2019-01-20T11:19:29.109Z,6460.00
2019-01-20T11:20:29.171Z,6481.00
2019-01-20T11:21:29.286Z,6574.00
2019-01-20T11:22:29.503Z,6621.00
2019-01-20T11:23:29.506Z,6411.00
2019-01-20T11:24:29.806Z,6287.00
2019-01-20T11:25:30.222Z,6092.00
2019-01-20T11:26:30.344Z,6243.00
2019-01-20T11:27:30.715Z,6278.00
2019-01-20T11:28:31.041Z,6318.00
2019-01-20T11:29:31.184Z,6044.00
2019-01-20T11:30:31.335Z,5950.00
2019-01-20T11:31:31.552Z,6534.00
2019-01-20T11:32:31.590Z,6771.00
2019-01-20T11:33:31.463Z,6543.00
2019-01-20T11:34:31.757Z,6406.00
2019-01-20T11:35:32.439Z,6341.00
2019-01-20T11:36:32.304Z,6359.00
2019-01-20T11:37:32.692Z,6311.00
2019-01-20T11:38:32.997Z,6416.00
2019-01-20T11:39:33.289Z,6468.00
2019-01-20T11:40:34.284Z,6451.00
2019-01-20T11:41:33.910Z,6363.00
2019-01-20T11:42:33.678Z,6359.00
2019-01-20T11:43:34.330Z,6388.00
2019-01-20T11:45:34.234Z,6384.00
2019-01-20T11:46:34.648Z,6498.00
2019-01-20T11:47:41.789Z,6479.00
2019-01-20T11:48:35.384Z,6464.00
2019-01-20T11:49:35.974Z,6375.00
2019-01-20T11:50:35.908Z,6373.00
2019-01-20T11:51:36.447Z,6464.00
2019-01-20T11:52:39.838Z,6581.00
2019-01-20T11:53:36.752Z,6537.00
2019-01-20T11:54:37.113Z,6514.00
2019-01-20T11:55:37.513Z,6730.00
2019-01-20T11:57:37.847Z,6594.00
2019-01-20T11:58:38.185Z,6786.00
2019-01-20T11:59:38.458Z,6747.00
2019-01-20T12:00:39.362Z,6875.00
2019-01-20T12:01:39.416Z,6949.00
2019-01-20T12:02:39.304Z,6644.00
2019-01-20T12:03:40.406Z,6400.00
2019-01-20T12:04:39.740Z,6269.00
2019-01-20T12:05:40.316Z,6524.00
2019-01-20T12:06:41.549Z,6790.00
2019-01-20T12:08:41.870Z,6529.00
2019-01-20T12:09:42.399Z,7007.00
2019-01-20T12:10:42.191Z,7041.00
2019-01-20T12:11:42.610Z,6690.00
2019-01-20T12:12:43.126Z,6781.00
2019-01-20T12:13:43.436Z,6932.00
2019-01-20T12:14:43.659Z,6548.00
2019-01-20T12:15:43.877Z,6592.00
2019-01-20T12:16:43.874Z,6992.00
2019-01-20T12:17:44.607Z,6970.00
2019-01-20T12:18:44.512Z,6770.00
2019-01-20T12:19:44.779Z,6468.00
2019-01-20T12:20:45.444Z,6297.00
2019-01-20T12:21:45.235Z,6308.00
2019-01-20T12:22:45.532Z,6140.00
2019-01-20T12:23:45.899Z,5992.00
2019-01-20T12:24:46.233Z,5994.00
2019-01-20T12:25:46.299Z,6168.00
2019-01-20T12:26:46.284Z,6136.00
2019-01-20T12:27:47.165Z,6310.00
2019-01-20T12:28:47.254Z,6115.00
2019-01-20T12:29:51.752Z,5700.00
2019-01-20T12:30:47.566Z,5956.00
2019-01-20T12:31:47.927Z,6335.00
2019-01-20T12:32:48.219Z,6272.00
2019-01-20T12:33:49.067Z,6099.00
2019-01-20T12:34:49.043Z,5731.00
2019-01-20T12:35:49.365Z,5355.00
2019-01-20T12:36:50.139Z,5489.00
2019-01-20T12:37:50.254Z,5563.00
2019-01-20T12:38:50.206Z,5604.00
2019-01-20T12:39:50.490Z,5280.00
2019-01-20T12:40:50.832Z,5217.00
2019-01-20T12:41:51.270Z,5816.00
2019-01-20T12:42:51.930Z,5478.00
2019-01-20T12:43:51.763Z,5324.00
2019-01-20T12:44:52.529Z,5409.00
2019-01-20T12:45:52.219Z,5330.00
2019-01-20T12:46:52.704Z,5329.00
2019-01-20T12:47:53.154Z,5395.00
2019-01-20T12:48:53.158Z,5588.00
2019-01-20T12:49:53.665Z,5745.00
2019-01-20T12:50:54.490Z,5608.00
2019-01-20T12:51:54.711Z,5754.00
2019-01-20T12:52:54.747Z,5970.00
2019-01-20T12:53:55.686Z,6148.00
2019-01-20T12:54:56.411Z,6200.00